createdAt,value
2022-10-22T00:02:07.872Z,15.00
2022-10-22T00:04:35.654Z,19.80
2022-10-22T00:07:02.985Z,15.68
2022-10-22T00:09:29.600Z,15.40
2022-10-22T00:11:57.490Z,14.90
2022-10-22T00:14:24.155Z,15.45
2022-10-22T00:16:50.864Z,14.50
2022-10-22T00:19:17.479Z,15.23
2022-10-22T00:21:44.197Z,17.60
2022-10-22T00:24:11.054Z,12.70
2022-10-22T00:26:39.398Z,14.40
2022-10-22T00:29:06.295Z,14.93
2022-10-22T00:31:33.398Z,14.98
2022-10-22T00:34:00.053Z,14.77
2022-10-22T00:36:26.702Z,22.35
2022-10-22T00:38:53.454Z,35.60
2022-10-22T00:41:20.313Z,14.63
2022-10-22T00:44:00.827Z,14.68
2022-10-22T00:46:27.488Z,14.98
2022-10-22T00:48:55.814Z,17.45
2022-10-22T00:51:25.818Z,19.00
2022-10-22T00:53:56.463Z,15.43
2022-10-22T00:56:24.546Z,13.52
2022-10-22T00:58:55.509Z,17.13
2022-10-22T01:01:25.981Z,17.50
2022-10-22T01:03:53.356Z,16.98
2022-10-22T01:06:26.714Z,12.90
2022-10-22T01:09:22.043Z,18.25
2022-10-22T01:12:15.286Z,16.60
2022-10-22T01:15:01.501Z,21.08
2022-10-22T01:17:47.562Z,16.90
2022-10-22T01:20:32.377Z,18.05
2022-10-22T01:23:17.338Z,16.85
2022-10-22T01:26:10.874Z,17.42
2022-10-22T01:29:02.517Z,16.58
2022-10-22T01:31:35.091Z,17.67
2022-10-22T01:34:03.534Z,17.42
2022-10-22T01:36:31.747Z,19.10
2022-10-22T01:39:00.668Z,14.98
2022-10-22T01:41:28.918Z,14.35
2022-10-22T01:43:55.794Z,16.45
2022-10-22T01:46:25.210Z,15.55
2022-10-22T01:49:18.081Z,16.50
2022-10-22T01:51:53.437Z,16.38
2022-10-22T01:54:59.901Z,15.98
2022-10-22T01:57:51.211Z,15.20
2022-10-22T02:00:19.110Z,14.98
2022-10-22T02:03:04.649Z,15.63
2022-10-22T02:05:49.150Z,12.23
2022-10-22T02:08:20.403Z,14.80
2022-10-22T02:10:49.422Z,13.10
2022-10-22T02:13:19.486Z,16.80
2022-10-22T02:15:49.168Z,12.55
2022-10-22T02:18:17.728Z,14.80
2022-10-22T02:20:44.472Z,12.63
2022-10-22T02:23:11.935Z,15.93
2022-10-22T02:25:42.215Z,17.13
2022-10-22T02:28:32.116Z,15.25
2022-10-22T02:31:07.725Z,16.13
2022-10-22T02:33:40.112Z,18.88
2022-10-22T02:36:08.132Z,15.15
2022-10-22T02:38:36.261Z,15.23
2022-10-22T02:41:03.587Z,13.20
2022-10-22T02:43:30.329Z,13.38
2022-10-22T02:45:57.344Z,16.08
2022-10-22T02:48:24.398Z,18.98
2022-10-22T02:50:51.153Z,13.13
2022-10-22T02:53:17.944Z,14.10
2022-10-22T02:55:44.743Z,16.58
2022-10-22T02:58:13.907Z,13.00
2022-10-22T03:00:40.701Z,19.73
2022-10-22T03:03:07.340Z,13.38
2022-10-22T03:05:34.117Z,13.15
2022-10-22T03:08:00.813Z,13.52
2022-10-22T03:10:27.521Z,15.07
2022-10-22T03:12:54.571Z,14.63
2022-10-22T03:15:21.269Z,11.60
2022-10-22T03:17:48.037Z,10.45
2022-10-22T03:20:14.872Z,12.25
2022-10-22T03:22:43.570Z,11.07
2022-10-22T03:25:21.118Z,15.73
2022-10-22T03:27:48.822Z,12.55
2022-10-22T03:30:16.002Z,11.40
2022-10-22T03:32:42.738Z,11.30
2022-10-22T03:35:09.509Z,12.45
2022-10-22T03:37:36.854Z,10.52
2022-10-22T03:40:07.983Z,10.98
2022-10-22T03:42:34.756Z,14.93
2022-10-22T03:45:01.507Z,12.77
2022-10-22T03:47:28.207Z,11.30
2022-10-22T03:49:54.871Z,10.52
2022-10-22T03:52:21.739Z,12.27
2022-10-22T03:54:48.442Z,15.20
2022-10-22T03:57:15.914Z,12.05
2022-10-22T03:59:44.431Z,11.05
2022-10-22T04:02:12.375Z,13.23
2022-10-22T04:04:39.681Z,13.52
2022-10-22T04:07:07.325Z,12.45
2022-10-22T04:09:34.600Z,14.07
2022-10-22T04:12:01.902Z,15.70
2022-10-22T04:14:28.572Z,13.32
2022-10-22T04:16:55.574Z,13.40
2022-10-22T04:19:22.429Z,16.42
2022-10-22T04:21:49.188Z,13.27
2022-10-22T04:24:16.411Z,12.50
2022-10-22T04:26:43.315Z,14.85
2022-10-22T04:29:13.611Z,13.13
2022-10-22T04:31:42.864Z,14.02
2022-10-22T04:34:09.499Z,11.57
2022-10-22T04:36:36.396Z,13.32
2022-10-22T04:39:04.416Z,12.15
2022-10-22T04:41:40.361Z,13.77
2022-10-22T04:44:11.073Z,16.77
2022-10-22T04:46:42.768Z,11.82
2022-10-22T04:49:09.440Z,12.10
2022-10-22T04:51:36.188Z,13.85
2022-10-22T04:54:04.065Z,14.27
2022-10-22T04:56:32.441Z,10.82
2022-10-22T04:59:05.191Z,12.93
2022-10-22T05:01:39.889Z,11.07
2022-10-22T05:04:12.657Z,10.55
2022-10-22T05:06:39.449Z,13.82
2022-10-22T05:09:14.443Z,15.50
2022-10-22T05:11:45.475Z,10.23
2022-10-22T05:14:12.803Z,10.88
2022-10-22T05:16:39.905Z,9.63
2022-10-22T05:19:07.968Z,10.38
2022-10-22T05:21:35.208Z,13.45
2022-10-22T05:24:02.283Z,10.57
2022-10-22T05:26:29.757Z,12.60
2022-10-22T05:28:56.715Z,12.00
2022-10-22T05:31:23.995Z,11.85
2022-10-22T05:33:50.737Z,8.20
2022-10-22T05:36:20.784Z,11.40
2022-10-22T05:38:48.039Z,12.07
2022-10-22T05:41:21.746Z,10.70
2022-10-22T05:43:48.976Z,11.45
2022-10-22T05:46:22.152Z,13.52
2022-10-22T05:48:55.379Z,12.57
2022-10-22T05:51:22.718Z,12.73
2022-10-22T05:53:52.727Z,14.63
2022-10-22T05:56:19.434Z,16.60
2022-10-22T05:58:47.124Z,15.77
2022-10-22T06:01:14.077Z,12.15
2022-10-22T06:03:41.440Z,13.60
2022-10-22T06:06:18.686Z,21.15
2022-10-22T06:08:47.862Z,14.82
2022-10-22T06:11:14.781Z,13.07
2022-10-22T06:13:41.386Z,13.73
2022-10-22T06:16:08.101Z,14.70
2022-10-22T06:18:35.065Z,15.00
2022-10-22T06:21:07.925Z,14.43
2022-10-22T06:23:35.305Z,14.73
2022-10-22T06:26:02.746Z,15.05
2022-10-22T06:28:29.721Z,14.45
2022-10-22T06:31:01.588Z,18.25
2022-10-22T06:33:29.333Z,15.68
2022-10-22T06:35:56.203Z,17.85
2022-10-22T06:38:22.841Z,17.15
2022-10-22T06:41:15.910Z,19.48
2022-10-22T06:43:45.310Z,17.40
2022-10-22T06:46:14.789Z,17.17
2022-10-22T06:48:51.992Z,17.38
2022-10-22T06:51:19.354Z,16.67
2022-10-22T06:53:46.000Z,15.77
2022-10-22T06:56:15.001Z,17.63
2022-10-22T06:58:41.783Z,17.23
2022-10-22T07:01:13.568Z,16.73
2022-10-22T07:03:41.613Z,18.38
2022-10-22T07:06:11.093Z,18.88
2022-10-22T07:08:38.495Z,18.95
2022-10-22T07:11:07.769Z,17.58
2022-10-22T07:13:35.044Z,16.90
2022-10-22T07:16:01.944Z,21.35
2022-10-22T07:18:28.667Z,24.40
2022-10-22T07:20:55.325Z,23.08
2022-10-22T07:23:21.892Z,20.13
2022-10-22T07:25:48.724Z,18.27
2022-10-22T07:28:15.347Z,20.42
2022-10-22T07:30:42.004Z,17.60
2022-10-22T07:33:09.010Z,18.48
2022-10-22T07:35:37.389Z,18.65
2022-10-22T07:38:04.796Z,19.70
2022-10-22T07:40:31.835Z,28.55
2022-10-22T07:42:58.542Z,22.35
2022-10-22T07:45:27.705Z,19.67
2022-10-22T07:47:54.445Z,21.20
2022-10-22T07:50:21.606Z,19.45
2022-10-22T07:52:48.317Z,20.00
2022-10-22T07:55:14.930Z,23.27
2022-10-22T07:57:41.577Z,20.42
2022-10-22T08:00:09.551Z,20.98
2022-10-22T08:02:39.384Z,24.88
2022-10-22T08:05:06.816Z,26.38
2022-10-22T08:07:33.516Z,22.83
2022-10-22T08:10:01.265Z,22.20
2022-10-22T08:12:27.871Z,23.63
2022-10-22T08:14:54.809Z,23.67
2022-10-22T08:17:21.764Z,25.40
2022-10-22T08:19:48.350Z,23.00
2022-10-22T08:22:15.027Z,24.70
2022-10-22T08:24:41.634Z,25.10
2022-10-22T08:27:08.237Z,24.50
2022-10-22T08:29:34.847Z,27.73
2022-10-22T08:32:02.911Z,24.70
2022-10-22T08:34:30.308Z,27.95
2022-10-22T08:36:56.950Z,31.50
2022-10-22T08:39:24.338Z,27.45
2022-10-22T08:42:03.886Z,27.00
2022-10-22T08:44:39.702Z,25.05
2022-10-22T08:47:22.589Z,24.65
2022-10-22T08:49:49.699Z,26.73
2022-10-22T08:52:20.024Z,25.13
2022-10-22T08:54:54.487Z,21.30
2022-10-22T08:57:52.439Z,24.23
2022-10-22T09:00:34.298Z,24.55
2022-10-22T09:03:09.807Z,19.75
2022-10-22T09:05:56.003Z,20.20
2022-10-22T09:08:23.378Z,22.35
2022-10-22T09:10:55.804Z,21.95
2022-10-22T09:13:23.565Z,21.33
2022-10-22T09:15:57.598Z,19.30
2022-10-22T09:18:46.360Z,22.92
2022-10-22T09:21:37.978Z,19.95
2022-10-22T09:24:13.662Z,20.98
2022-10-22T09:26:41.361Z,21.48
2022-10-22T09:29:19.371Z,17.55
2022-10-22T09:31:46.288Z,17.45
2022-10-22T09:34:15.958Z,15.82
2022-10-22T09:36:42.463Z,18.02
2022-10-22T09:39:26.731Z,17.75
2022-10-22T09:41:53.538Z,15.02
2022-10-22T09:44:20.843Z,12.43
2022-10-22T09:46:47.453Z,16.85
2022-10-22T09:49:17.737Z,12.57
2022-10-22T09:52:01.024Z,15.98
2022-10-22T09:54:33.272Z,12.50
2022-10-22T09:57:06.934Z,12.60
2022-10-22T09:59:38.182Z,13.30
2022-10-22T10:02:38.772Z,12.07
2022-10-22T10:05:07.231Z,13.68
2022-10-22T10:07:35.932Z,13.20
2022-10-22T10:10:10.369Z,9.80
2022-10-22T10:15:56.294Z,11.13
2022-10-22T10:18:48.386Z,12.40
2022-10-22T10:21:39.056Z,14.07
2022-10-22T10:24:42.886Z,10.20
2022-10-22T10:27:28.133Z,9.70
2022-10-22T10:30:04.203Z,11.13
2022-10-22T10:33:06.170Z,9.25
2022-10-22T10:35:55.195Z,10.90
2022-10-22T10:38:40.274Z,8.70
2022-10-22T10:41:28.414Z,10.40
2022-10-22T10:44:17.005Z,8.93
2022-10-22T10:47:22.174Z,12.10
2022-10-22T10:49:54.845Z,10.07
2022-10-22T10:52:34.868Z,6.85
2022-10-22T10:55:19.415Z,8.35
2022-10-22T10:58:04.584Z,9.05
2022-10-22T11:00:39.549Z,6.32
2022-10-22T11:03:40.462Z,10.65
2022-10-22T11:06:14.633Z,6.30
2022-10-22T11:08:45.961Z,5.60
2022-10-22T11:11:19.571Z,9.18
2022-10-22T11:13:53.366Z,7.47
2022-10-22T11:16:42.431Z,10.20
2022-10-22T11:19:46.156Z,9.00
2022-10-22T11:22:28.668Z,6.68
2022-10-22T11:24:55.281Z,9.00
2022-10-22T11:27:27.864Z,11.48
2022-10-22T11:30:02.276Z,13.25
2022-10-22T11:32:29.921Z,9.65
2022-10-22T11:34:59.672Z,9.77
2022-10-22T11:37:34.541Z,8.43
2022-10-22T11:40:18.501Z,6.30
2022-10-22T11:42:53.817Z,8.55
2022-10-22T11:45:23.162Z,8.30
2022-10-22T11:48:11.538Z,6.18
2022-10-22T11:50:48.418Z,10.15
2022-10-22T11:53:14.896Z,9.60
2022-10-22T11:55:45.974Z,11.57
2022-10-22T11:58:32.990Z,7.93
2022-10-22T12:01:02.440Z,6.57
2022-10-22T12:03:31.880Z,7.22
2022-10-22T12:06:15.369Z,10.20
2022-10-22T12:08:54.556Z,6.55
2022-10-22T12:11:41.441Z,10.02
2022-10-22T12:14:20.478Z,10.88
2022-10-22T12:17:02.833Z,7.00
2022-10-22T12:19:51.148Z,6.25
2022-10-22T12:22:32.578Z,5.60
2022-10-22T12:25:06.333Z,7.13
2022-10-22T12:27:38.438Z,6.22
2022-10-22T12:30:23.778Z,8.27
2022-10-22T12:33:01.119Z,8.90
2022-10-22T12:35:31.294Z,5.97
2022-10-22T12:38:08.294Z,6.90
2022-10-22T12:40:35.616Z,4.90
2022-10-22T12:45:38.565Z,4.93
2022-10-22T12:48:14.558Z,4.10
2022-10-22T12:53:39.251Z,8.18
2022-10-22T12:56:10.489Z,5.17
2022-10-22T12:58:41.593Z,7.35
2022-10-22T13:01:11.992Z,5.68
2022-10-22T13:03:45.582Z,9.00
2022-10-22T13:06:25.050Z,5.35
2022-10-22T13:09:16.510Z,6.13
2022-10-22T13:12:04.612Z,5.45
2022-10-22T13:14:34.106Z,5.65
2022-10-22T13:17:15.661Z,5.97
2022-10-22T13:20:05.338Z,7.35
2022-10-22T13:22:40.279Z,7.93
2022-10-22T13:25:25.108Z,6.10
2022-10-22T13:27:54.342Z,6.93
2022-10-22T13:30:26.932Z,10.60
2022-10-22T13:32:56.354Z,7.75
2022-10-22T13:35:29.335Z,11.23
2022-10-22T13:37:55.980Z,8.60
2022-10-22T13:40:22.586Z,7.18
2022-10-22T13:42:49.279Z,5.90
2022-10-22T13:45:16.315Z,8.00
2022-10-22T13:47:46.560Z,6.57
2022-10-22T13:50:15.998Z,7.15
2022-10-22T13:52:54.510Z,5.10
2022-10-22T13:55:26.900Z,4.68
2022-10-22T13:57:57.527Z,4.90
2022-10-22T14:00:24.931Z,6.90
2022-10-22T14:02:54.395Z,4.40
2022-10-22T14:05:21.527Z,5.88
2022-10-22T14:07:50.148Z,11.32
2022-10-22T14:10:24.510Z,7.20
2022-10-22T14:12:53.457Z,5.55
2022-10-22T14:15:25.199Z,5.35
2022-10-22T14:17:57.518Z,7.00
2022-10-22T14:20:31.016Z,7.13
2022-10-22T14:23:02.824Z,4.85
2022-10-22T14:25:31.455Z,5.05
2022-10-22T14:27:58.070Z,7.38
2022-10-22T14:30:26.036Z,8.65
2022-10-22T14:32:53.046Z,6.13
2022-10-22T14:35:22.709Z,8.65
2022-10-22T14:37:49.466Z,5.18
2022-10-22T14:40:20.098Z,6.63
2022-10-22T14:42:48.857Z,10.50
2022-10-22T14:45:24.613Z,8.75
2022-10-22T14:47:52.290Z,8.35
2022-10-22T14:50:19.325Z,6.60
2022-10-22T14:52:46.060Z,10.73
2022-10-22T14:55:15.003Z,7.45
2022-10-22T14:57:42.260Z,4.95
2022-10-22T15:00:12.738Z,6.47
2022-10-22T15:02:39.809Z,8.27
2022-10-22T15:05:07.916Z,5.55
2022-10-22T15:07:34.862Z,4.55
2022-10-22T15:10:01.835Z,9.52
2022-10-22T15:12:28.849Z,5.85
2022-10-22T15:14:55.359Z,10.68
2022-10-22T15:17:21.919Z,7.28
2022-10-22T15:19:48.638Z,8.13
2022-10-22T15:22:15.707Z,10.85
2022-10-22T15:24:45.203Z,6.93
2022-10-22T15:27:15.062Z,5.40
2022-10-22T15:29:42.453Z,6.18
2022-10-22T15:32:12.904Z,10.27
2022-10-22T15:34:40.074Z,5.25
2022-10-22T15:37:09.161Z,7.18
2022-10-22T15:39:35.981Z,7.88
2022-10-22T15:42:02.485Z,11.23
2022-10-22T15:44:31.369Z,5.65
2022-10-22T15:46:58.183Z,6.47
2022-10-22T15:49:27.280Z,4.38
2022-10-22T15:51:55.091Z,6.10
2022-10-22T15:54:24.162Z,6.35
2022-10-22T15:56:51.088Z,9.45
2022-10-22T15:59:18.130Z,9.95
2022-10-22T16:01:45.215Z,6.22
2022-10-22T16:04:12.022Z,5.38
2022-10-22T16:06:43.950Z,7.20
2022-10-22T16:09:16.707Z,9.63
2022-10-22T16:11:44.594Z,10.32
2022-10-22T16:14:12.985Z,8.95
2022-10-22T16:16:43.655Z,13.98
2022-10-22T16:19:15.584Z,6.53
2022-10-22T16:21:42.528Z,5.10
2022-10-22T16:24:09.764Z,6.00
2022-10-22T16:26:36.512Z,4.90
2022-10-22T16:29:04.705Z,6.07
2022-10-22T16:31:31.418Z,9.27
2022-10-22T16:33:58.548Z,6.05
2022-10-22T16:36:25.389Z,5.25
2022-10-22T16:38:52.089Z,7.32
2022-10-22T16:41:21.630Z,5.90
2022-10-22T16:43:50.789Z,5.90
2022-10-22T16:46:19.500Z,9.35
2022-10-22T16:48:49.982Z,4.50
2022-10-22T16:51:19.189Z,8.82
2022-10-22T16:53:45.946Z,4.60
2022-10-22T16:56:14.257Z,7.30
2022-10-22T16:58:46.282Z,7.30
2022-10-22T17:01:17.664Z,9.75
2022-10-22T17:03:45.061Z,7.10
2022-10-22T17:06:12.290Z,10.10
2022-10-22T17:08:40.728Z,9.00
2022-10-22T17:11:18.822Z,6.53
2022-10-22T17:13:49.043Z,13.10
2022-10-22T17:16:18.391Z,9.63
2022-10-22T17:21:14.346Z,8.05
2022-10-22T17:23:42.712Z,8.10
2022-10-22T17:26:14.969Z,10.13
2022-10-22T17:28:41.735Z,7.07
2022-10-22T17:31:11.370Z,6.88
2022-10-22T17:33:38.264Z,8.55
2022-10-22T17:36:10.870Z,6.75
2022-10-22T17:38:38.872Z,6.18
2022-10-22T17:41:08.009Z,9.60
2022-10-22T17:43:36.008Z,6.97
2022-10-22T17:46:07.016Z,7.18
2022-10-22T17:48:34.599Z,9.20
2022-10-22T17:51:01.221Z,8.55
2022-10-22T17:53:27.943Z,8.73
2022-10-22T17:56:07.016Z,7.95
2022-10-22T17:58:33.709Z,14.50
2022-10-22T18:01:03.593Z,15.27
2022-10-22T18:03:30.382Z,14.63
2022-10-22T18:06:08.440Z,16.00
2022-10-22T18:08:35.240Z,15.85
2022-10-22T18:11:17.714Z,20.23
2022-10-22T18:13:47.606Z,15.40
2022-10-22T18:16:14.333Z,18.40
2022-10-22T18:18:41.239Z,17.25
2022-10-22T18:21:07.833Z,17.45
2022-10-22T18:23:34.613Z,17.70
2022-10-22T18:26:04.683Z,12.45
2022-10-22T18:28:31.438Z,17.77
2022-10-22T18:30:58.438Z,14.90
2022-10-22T18:33:25.837Z,18.58
2022-10-22T18:35:52.543Z,12.40
2022-10-22T18:38:22.356Z,12.50
2022-10-22T18:40:50.230Z,13.45
2022-10-22T18:43:26.494Z,10.65
2022-10-22T18:45:53.104Z,14.93
2022-10-22T18:48:22.771Z,11.45
2022-10-22T18:51:08.003Z,14.32
2022-10-22T18:53:38.406Z,12.50
2022-10-22T18:56:06.876Z,11.70
2022-10-22T18:58:44.878Z,13.00
2022-10-22T19:01:14.664Z,12.35
2022-10-22T19:03:41.857Z,9.85
2022-10-22T19:06:08.728Z,11.88
2022-10-22T19:08:36.514Z,11.50
2022-10-22T19:11:13.521Z,9.30
2022-10-22T19:13:40.770Z,9.43
2022-10-22T19:16:11.185Z,15.55
2022-10-22T19:18:42.283Z,12.77
2022-10-22T19:21:08.984Z,9.43
2022-10-22T19:23:35.736Z,11.43
2022-10-22T19:26:04.996Z,15.25
2022-10-22T19:28:31.812Z,11.65
2022-10-22T19:30:58.793Z,15.70
2022-10-22T19:33:26.800Z,8.45
2022-10-22T19:35:53.503Z,11.23
2022-10-22T19:38:20.145Z,10.15
2022-10-22T19:40:46.729Z,13.48
2022-10-22T19:43:16.776Z,10.90
2022-10-22T19:45:45.553Z,10.57
2022-10-22T19:48:12.145Z,10.52
2022-10-22T19:50:39.093Z,8.65
2022-10-22T19:53:05.718Z,15.57
2022-10-22T19:55:32.329Z,9.20
2022-10-22T19:57:58.948Z,9.32
2022-10-22T20:00:25.607Z,7.75
2022-10-22T20:02:52.225Z,10.25
2022-10-22T20:05:18.913Z,14.90
2022-10-22T20:07:45.641Z,13.60
2022-10-22T20:10:12.442Z,11.25
2022-10-22T20:12:39.053Z,9.50
2022-10-22T20:15:06.379Z,13.52
2022-10-22T20:17:34.127Z,10.77
2022-10-22T20:20:00.804Z,12.30
2022-10-22T20:22:27.341Z,14.75
2022-10-22T20:24:54.323Z,8.55
2022-10-22T20:27:21.480Z,9.68
2022-10-22T20:29:48.038Z,12.13
2022-10-22T20:32:14.747Z,10.32
2022-10-22T20:34:42.439Z,13.00
2022-10-22T20:37:09.116Z,8.88
2022-10-22T20:39:36.028Z,9.00
2022-10-22T20:42:02.848Z,9.32
2022-10-22T20:44:29.506Z,9.73
2022-10-22T20:49:27.704Z,13.90
2022-10-22T20:51:54.354Z,13.20
2022-10-22T20:54:20.979Z,9.80
2022-10-22T20:56:48.118Z,12.60
2022-10-22T20:59:15.452Z,11.13
2022-10-22T21:01:48.714Z,9.07
2022-10-22T21:04:16.781Z,8.98
2022-10-22T21:06:44.621Z,14.60
2022-10-22T21:09:13.818Z,13.38
2022-10-22T21:11:41.783Z,13.15
2022-10-22T21:14:10.985Z,13.45
2022-10-22T21:16:40.966Z,12.40
2022-10-22T21:19:07.607Z,12.20
2022-10-22T21:21:34.238Z,11.48
2022-10-22T21:24:00.864Z,10.48
2022-10-22T21:26:27.483Z,9.63
2022-10-22T21:28:54.059Z,9.10
2022-10-22T21:31:26.038Z,9.00
2022-10-22T21:33:53.850Z,13.70
2022-10-22T21:36:23.178Z,8.65
2022-10-22T21:38:51.806Z,8.98
2022-10-22T21:41:20.059Z,10.20
2022-10-22T21:43:46.981Z,10.25
2022-10-22T21:46:17.200Z,11.52
2022-10-22T21:48:44.427Z,10.32
2022-10-22T21:51:17.655Z,11.13
2022-10-22T21:53:45.046Z,10.35
2022-10-22T21:56:19.309Z,9.85
2022-10-22T21:58:46.159Z,10.88
2022-10-22T22:01:14.512Z,13.07
2022-10-22T22:03:43.656Z,12.00
2022-10-22T22:06:10.765Z,10.82
2022-10-22T22:08:37.768Z,9.98
2022-10-22T22:11:07.567Z,9.60
2022-10-22T22:13:34.976Z,13.82
2022-10-22T22:16:07.701Z,12.40
2022-10-22T22:18:35.767Z,9.98
2022-10-22T22:21:08.092Z,11.30
2022-10-22T22:23:37.933Z,9.80
2022-10-22T22:26:05.220Z,11.73
2022-10-22T22:28:32.968Z,12.30
2022-10-22T22:31:00.531Z,30.45
2022-10-22T22:33:27.793Z,8.30
2022-10-22T22:35:58.880Z,12.05
2022-10-22T22:38:25.519Z,10.35
2022-10-22T22:40:52.221Z,12.20
2022-10-22T22:43:18.832Z,10.98
2022-10-22T22:45:45.446Z,10.68
2022-10-22T22:48:12.041Z,11.57
2022-10-22T22:50:38.679Z,14.18
2022-10-22T22:53:05.251Z,10.48
2022-10-22T22:55:32.048Z,14.55
2022-10-22T22:57:58.953Z,10.65
2022-10-22T23:00:25.763Z,11.15
2022-10-22T23:02:56.027Z,11.63
2022-10-22T23:05:22.879Z,11.25
2022-10-22T23:07:49.469Z,10.90
2022-10-22T23:10:16.211Z,12.50
2022-10-22T23:12:43.157Z,10.38
2022-10-22T23:15:10.373Z,12.63
2022-10-22T23:17:36.966Z,13.98
2022-10-22T23:20:04.052Z,10.82
2022-10-22T23:22:30.766Z,8.07
2022-10-22T23:24:57.362Z,12.70
2022-10-22T23:27:23.934Z,13.25
2022-10-22T23:29:50.623Z,11.35
2022-10-22T23:32:17.245Z,13.75
2022-10-22T23:34:43.847Z,14.68
2022-10-22T23:37:12.259Z,10.63
2022-10-22T23:39:38.880Z,9.85
2022-10-22T23:42:05.655Z,12.02
2022-10-22T23:44:32.401Z,10.35
2022-10-22T23:46:59.100Z,11.43
2022-10-22T23:49:25.762Z,15.00
2022-10-22T23:51:52.414Z,15.82
2022-10-22T23:54:19.255Z,9.65
2022-10-22T23:56:46.142Z,11.90
